sensor_id;sensor_type;location;lat;lon;timestamp;temperature;humidity
21244;DHT22;10780;50.942;4.028;2023-01-28T00:02:19;5.60;99.90
21244;DHT22;10780;50.942;4.028;2023-01-28T00:04:45;5.60;99.90
21244;DHT22;10780;50.942;4.028;2023-01-28T00:07:10;5.60;99.90
21244;DHT22;10780;50.942;4.028;2023-01-28T00:09:36;5.60;99.90
21244;DHT22;10780;50.942;4.028;2023-01-28T00:12:01;5.60;99.90
21244;DHT22;10780;50.942;4.028;2023-01-28T00:14:27;5.60;99.90
21244;DHT22;10780;50.942;4.028;2023-01-28T00:16:53;5.60;99.90
21244;DHT22;10780;50.942;4.028;2023-01-28T00:19:18;5.50;99.90
21244;DHT22;10780;50.942;4.028;2023-01-28T00:21:44;5.60;99.90
21244;DHT22;10780;50.942;4.028;2023-01-28T00:24:09;5.50;99.90
21244;DHT22;10780;50.942;4.028;2023-01-28T00:26:35;5.40;99.90
21244;DHT22;10780;50.942;4.028;2023-01-28T00:29:01;5.30;99.90
21244;DHT22;10780;50.942;4.028;2023-01-28T00:31:27;5.30;99.90
21244;DHT22;10780;50.942;4.028;2023-01-28T00:33:54;5.30;99.90
21244;DHT22;10780;50.942;4.028;2023-01-28T00:36:22;5.30;99.90
21244;DHT22;10780;50.942;4.028;2023-01-28T00:38:56;5.40;99.90
21244;DHT22;10780;50.942;4.028;2023-01-28T00:41:24;5.40;99.90
21244;DHT22;10780;50.942;4.028;2023-01-28T00:43:51;5.40;99.90
21244;DHT22;10780;50.942;4.028;2023-01-28T00:46:17;5.40;99.90
21244;DHT22;10780;50.942;4.028;2023-01-28T00:48:43;5.30;99.90
21244;DHT22;10780;50.942;4.028;2023-01-28T00:51:11;5.40;99.90
21244;DHT22;10780;50.942;4.028;2023-01-28T00:53:37;5.20;99.90
21244;DHT22;10780;50.942;4.028;2023-01-28T00:56:04;5.30;99.90
21244;DHT22;10780;50.942;4.028;2023-01-28T00:58:31;5.30;99.90
21244;DHT22;10780;50.942;4.028;2023-01-28T01:01:05;5.30;99.90
21244;DHT22;10780;50.942;4.028;2023-01-28T01:03:30;5.20;99.90
21244;DHT22;10780;50.942;4.028;2023-01-28T01:05:56;5.30;99.90
21244;DHT22;10780;50.942;4.028;2023-01-28T01:08:22;5.20;99.90
21244;DHT22;10780;50.942;4.028;2023-01-28T01:11:00;5.10;99.90
21244;DHT22;10780;50.942;4.028;2023-01-28T01:13:26;5.10;99.90
21244;DHT22;10780;50.942;4.028;2023-01-28T01:16:01;5.20;99.90
21244;DHT22;10780;50.942;4.028;2023-01-28T01:18:27;5.10;99.90
21244;DHT22;10780;50.942;4.028;2023-01-28T01:20:52;5.20;99.90
21244;DHT22;10780;50.942;4.028;2023-01-28T01:23:24;5.20;99.90
21244;DHT22;10780;50.942;4.028;2023-01-28T01:25:50;5.30;99.90
21244;DHT22;10780;50.942;4.028;2023-01-28T01:28:16;5.30;99.90
21244;DHT22;10780;50.942;4.028;2023-01-28T01:30:42;5.30;99.90
21244;DHT22;10780;50.942;4.028;2023-01-28T01:33:07;5.30;99.90
21244;DHT22;10780;50.942;4.028;2023-01-28T01:35:33;5.40;99.90
21244;DHT22;10780;50.942;4.028;2023-01-28T01:37:59;5.40;99.90
21244;DHT22;10780;50.942;4.028;2023-01-28T01:40:24;5.40;99.90
21244;DHT22;10780;50.942;4.028;2023-01-28T01:42:50;5.50;99.90
21244;DHT22;10780;50.942;4.028;2023-01-28T01:45:15;5.40;99.90
21244;DHT22;10780;50.942;4.028;2023-01-28T01:47:56;5.30;99.90
21244;DHT22;10780;50.942;4.028;2023-01-28T01:50:33;5.30;99.90
21244;DHT22;10780;50.942;4.028;2023-01-28T01:53:07;5.40;99.90
21244;DHT22;10780;50.942;4.028;2023-01-28T01:55:35;5.40;99.90
21244;DHT22;10780;50.942;4.028;2023-01-28T01:58:06;5.40;99.90
21244;DHT22;10780;50.942;4.028;2023-01-28T02:00:33;5.40;99.90
21244;DHT22;10780;50.942;4.028;2023-01-28T02:02:59;5.40;99.90
21244;DHT22;10780;50.942;4.028;2023-01-28T02:05:25;5.40;99.90
21244;DHT22;10780;50.942;4.028;2023-01-28T02:07:53;5.40;99.90
21244;DHT22;10780;50.942;4.028;2023-01-28T02:10:21;5.40;99.90
21244;DHT22;10780;50.942;4.028;2023-01-28T02:12:56;5.40;99.90
21244;DHT22;10780;50.942;4.028;2023-01-28T02:15:23;5.50;99.90
21244;DHT22;10780;50.942;4.028;2023-01-28T02:17:50;5.40;99.90
21244;DHT22;10780;50.942;4.028;2023-01-28T02:20:52;5.30;99.90
21244;DHT22;10780;50.942;4.028;2023-01-28T02:29:10;5.30;99.90
21244;DHT22;10780;50.942;4.028;2023-01-28T02:34:58;5.20;99.90
21244;DHT22;10780;50.942;4.028;2023-01-28T02:38:15;5.30;99.90
21244;DHT22;10780;50.942;4.028;2023-01-28T02:40:35;5.30;99.90
21244;DHT22;10780;50.942;4.028;2023-01-28T02:45:56;4.90;99.90
21244;DHT22;10780;50.942;4.028;2023-01-28T02:48:41;4.90;99.90
21244;DHT22;10780;50.942;4.028;2023-01-28T02:51:32;4.80;99.90
21244;DHT22;10780;50.942;4.028;2023-01-28T02:54:13;4.90;99.90
21244;DHT22;10780;50.942;4.028;2023-01-28T03:05:04;4.70;99.90
21244;DHT22;10780;50.942;4.028;2023-01-28T03:07:34;4.80;99.90
21244;DHT22;10780;50.942;4.028;2023-01-28T03:10:04;4.90;99.90
21244;DHT22;10780;50.942;4.028;2023-01-28T03:12:32;4.90;99.90
21244;DHT22;10780;50.942;4.028;2023-01-28T03:15:21;4.80;99.90
21244;DHT22;10780;50.942;4.028;2023-01-28T03:18:19;4.80;99.90
21244;DHT22;10780;50.942;4.028;2023-01-28T03:21:22;5.00;99.90
21244;DHT22;10780;50.942;4.028;2023-01-28T03:24:16;5.10;99.90
21244;DHT22;10780;50.942;4.028;2023-01-28T03:27:18;4.90;99.90
21244;DHT22;10780;50.942;4.028;2023-01-28T03:30:10;4.90;99.90
21244;DHT22;10780;50.942;4.028;2023-01-28T03:32:57;4.90;99.90
21244;DHT22;10780;50.942;4.028;2023-01-28T03:35:42;4.90;99.90
21244;DHT22;10780;50.942;4.028;2023-01-28T03:38:27;4.70;99.90
21244;DHT22;10780;50.942;4.028;2023-01-28T03:41:10;4.80;99.90
21244;DHT22;10780;50.942;4.028;2023-01-28T03:43:36;4.80;99.90
21244;DHT22;10780;50.942;4.028;2023-01-28T03:46:02;4.60;99.90
21244;DHT22;10780;50.942;4.028;2023-01-28T03:48:30;4.60;99.90
21244;DHT22;10780;50.942;4.028;2023-01-28T03:50:56;4.70;99.90
21244;DHT22;10780;50.942;4.028;2023-01-28T03:53:24;4.60;99.90
21244;DHT22;10780;50.942;4.028;2023-01-28T03:55:52;4.70;99.90
21244;DHT22;10780;50.942;4.028;2023-01-28T03:58:19;4.70;99.90
21244;DHT22;10780;50.942;4.028;2023-01-28T04:00:45;4.60;99.90
21244;DHT22;10780;50.942;4.028;2023-01-28T04:03:13;4.80;99.90
21244;DHT22;10780;50.942;4.028;2023-01-28T04:06:00;4.80;99.90
21244;DHT22;10780;50.942;4.028;2023-01-28T04:08:26;4.90;99.90
21244;DHT22;10780;50.942;4.028;2023-01-28T04:10:52;4.80;99.90
21244;DHT22;10780;50.942;4.028;2023-01-28T04:13:17;4.90;99.90
21244;DHT22;10780;50.942;4.028;2023-01-28T04:15:43;4.80;99.90
21244;DHT22;10780;50.942;4.028;2023-01-28T04:18:10;4.70;99.90
21244;DHT22;10780;50.942;4.028;2023-01-28T04:20:36;4.70;99.90
21244;DHT22;10780;50.942;4.028;2023-01-28T04:23:03;4.70;99.90
21244;DHT22;10780;50.942;4.028;2023-01-28T04:25:29;4.70;99.90
21244;DHT22;10780;50.942;4.028;2023-01-28T04:27:55;4.70;99.90
21244;DHT22;10780;50.942;4.028;2023-01-28T04:30:21;4.70;99.90
21244;DHT22;10780;50.942;4.028;2023-01-28T04:32:47;4.60;99.90
21244;DHT22;10780;50.942;4.028;2023-01-28T04:35:15;4.70;99.90
21244;DHT22;10780;50.942;4.028;2023-01-28T04:37:41;4.70;99.90
21244;DHT22;10780;50.942;4.028;2023-01-28T04:40:08;4.70;99.90
21244;DHT22;10780;50.942;4.028;2023-01-28T04:42:34;4.70;99.90
21244;DHT22;10780;50.942;4.028;2023-01-28T04:44:59;4.60;99.90
21244;DHT22;10780;50.942;4.028;2023-01-28T04:47:25;4.50;99.90
21244;DHT22;10780;50.942;4.028;2023-01-28T04:49:51;4.50;99.90
21244;DHT22;10780;50.942;4.028;2023-01-28T04:52:16;4.50;99.90
21244;DHT22;10780;50.942;4.028;2023-01-28T04:54:42;4.60;99.90
21244;DHT22;10780;50.942;4.028;2023-01-28T04:57:07;4.70;99.90
21244;DHT22;10780;50.942;4.028;2023-01-28T04:59:33;4.70;99.90
21244;DHT22;10780;50.942;4.028;2023-01-28T05:01:59;4.70;99.90
21244;DHT22;10780;50.942;4.028;2023-01-28T05:04:24;4.70;99.90
21244;DHT22;10780;50.942;4.028;2023-01-28T05:06:50;4.70;99.90
21244;DHT22;10780;50.942;4.028;2023-01-28T05:09:16;4.70;99.90
21244;DHT22;10780;50.942;4.028;2023-01-28T05:11:41;4.70;99.90
21244;DHT22;10780;50.942;4.028;2023-01-28T05:14:07;4.70;99.90
21244;DHT22;10780;50.942;4.028;2023-01-28T05:16:33;4.70;99.90
21244;DHT22;10780;50.942;4.028;2023-01-28T05:19:00;4.80;99.90
21244;DHT22;10780;50.942;4.028;2023-01-28T05:21:26;4.80;99.90
21244;DHT22;10780;50.942;4.028;2023-01-28T05:23:52;4.80;99.90
21244;DHT22;10780;50.942;4.028;2023-01-28T05:26:18;4.80;99.90
21244;DHT22;10780;50.942;4.028;2023-01-28T05:28:43;4.70;99.90
21244;DHT22;10780;50.942;4.028;2023-01-28T05:31:09;4.50;99.90
21244;DHT22;10780;50.942;4.028;2023-01-28T05:33:35;4.40;99.90
21244;DHT22;10780;50.942;4.028;2023-01-28T05:36:01;4.50;99.90
21244;DHT22;10780;50.942;4.028;2023-01-28T05:38:26;4.50;99.90
21244;DHT22;10780;50.942;4.028;2023-01-28T05:40:52;4.50;99.90
21244;DHT22;10780;50.942;4.028;2023-01-28T05:43:18;4.30;99.90
21244;DHT22;10780;50.942;4.028;2023-01-28T05:45:43;4.30;99.90
21244;DHT22;10780;50.942;4.028;2023-01-28T05:48:09;4.30;99.90
21244;DHT22;10780;50.942;4.028;2023-01-28T05:50:35;4.30;99.90
21244;DHT22;10780;50.942;4.028;2023-01-28T05:53:04;4.20;99.90
21244;DHT22;10780;50.942;4.028;2023-01-28T05:55:30;4.20;99.90
21244;DHT22;10780;50.942;4.028;2023-01-28T05:57:56;4.30;99.90
21244;DHT22;10780;50.942;4.028;2023-01-28T06:00:21;4.30;99.90
21244;DHT22;10780;50.942;4.028;2023-01-28T06:02:49;4.40;99.90
21244;DHT22;10780;50.942;4.028;2023-01-28T06:05:15;4.40;99.90
21244;DHT22;10780;50.942;4.028;2023-01-28T06:07:46;4.50;99.90
21244;DHT22;10780;50.942;4.028;2023-01-28T06:10:13;4.40;99.90
21244;DHT22;10780;50.942;4.028;2023-01-28T06:12:38;4.50;99.90
21244;DHT22;10780;50.942;4.028;2023-01-28T06:15:04;4.60;99.90
21244;DHT22;10780;50.942;4.028;2023-01-28T06:17:30;4.50;99.90
21244;DHT22;10780;50.942;4.028;2023-01-28T06:19:56;4.60;99.90
21244;DHT22;10780;50.942;4.028;2023-01-28T06:22:22;4.70;99.90
21244;DHT22;10780;50.942;4.028;2023-01-28T06:24:47;4.70;99.90
21244;DHT22;10780;50.942;4.028;2023-01-28T06:27:13;4.50;99.90
21244;DHT22;10780;50.942;4.028;2023-01-28T06:29:38;4.40;99.90
21244;DHT22;10780;50.942;4.028;2023-01-28T06:32:04;4.40;99.90
21244;DHT22;10780;50.942;4.028;2023-01-28T06:34:30;4.40;99.90
21244;DHT22;10780;50.942;4.028;2023-01-28T06:36:56;4.30;99.90
21244;DHT22;10780;50.942;4.028;2023-01-28T06:39:21;4.30;99.90
21244;DHT22;10780;50.942;4.028;2023-01-28T06:41:50;4.30;99.90
21244;DHT22;10780;50.942;4.028;2023-01-28T06:44:16;4.30;99.90
21244;DHT22;10780;50.942;4.028;2023-01-28T06:46:41;4.20;99.90
21244;DHT22;10780;50.942;4.028;2023-01-28T06:49:07;4.00;99.90
21244;DHT22;10780;50.942;4.028;2023-01-28T06:51:33;4.00;99.90
21244;DHT22;10780;50.942;4.028;2023-01-28T06:53:59;4.00;99.90
21244;DHT22;10780;50.942;4.028;2023-01-28T06:56:25;4.00;99.90
21244;DHT22;10780;50.942;4.028;2023-01-28T06:58:50;4.10;99.90
21244;DHT22;10780;50.942;4.028;2023-01-28T07:01:16;4.00;99.90
21244;DHT22;10780;50.942;4.028;2023-01-28T07:03:42;4.10;99.90
21244;DHT22;10780;50.942;4.028;2023-01-28T07:06:07;4.10;99.90
21244;DHT22;10780;50.942;4.028;2023-01-28T07:08:33;4.00;99.90
21244;DHT22;10780;50.942;4.028;2023-01-28T07:10:59;4.10;99.90
21244;DHT22;10780;50.942;4.028;2023-01-28T07:13:25;4.10;99.90
21244;DHT22;10780;50.942;4.028;2023-01-28T07:15:50;4.10;99.90
21244;DHT22;10780;50.942;4.028;2023-01-28T07:18:16;4.30;99.90
21244;DHT22;10780;50.942;4.028;2023-01-28T07:20:42;4.30;99.90
21244;DHT22;10780;50.942;4.028;2023-01-28T07:23:08;4.20;99.90
21244;DHT22;10780;50.942;4.028;2023-01-28T07:25:33;4.20;99.90
21244;DHT22;10780;50.942;4.028;2023-01-28T07:27:59;4.20;99.90
21244;DHT22;10780;50.942;4.028;2023-01-28T07:30:25;4.20;99.90
21244;DHT22;10780;50.942;4.028;2023-01-28T07:32:55;4.20;99.90
21244;DHT22;10780;50.942;4.028;2023-01-28T07:35:21;4.20;99.90
21244;DHT22;10780;50.942;4.028;2023-01-28T07:37:55;4.10;99.90
21244;DHT22;10780;50.942;4.028;2023-01-28T07:40:21;4.10;99.90
21244;DHT22;10780;50.942;4.028;2023-01-28T07:42:47;4.10;99.90
21244;DHT22;10780;50.942;4.028;2023-01-28T07:45:14;4.30;99.90
21244;DHT22;10780;50.942;4.028;2023-01-28T07:47:40;4.30;99.90
21244;DHT22;10780;50.942;4.028;2023-01-28T07:50:06;4.40;99.90
21244;DHT22;10780;50.942;4.028;2023-01-28T07:52:32;4.40;99.90
21244;DHT22;10780;50.942;4.028;2023-01-28T07:55:03;4.40;99.90
21244;DHT22;10780;50.942;4.028;2023-01-28T07:57:29;4.30;99.90
21244;DHT22;10780;50.942;4.028;2023-01-28T07:59:55;4.40;99.90
21244;DHT22;10780;50.942;4.028;2023-01-28T08:02:20;4.20;99.90
21244;DHT22;10780;50.942;4.028;2023-01-28T08:04:46;4.30;99.90
21244;DHT22;10780;50.942;4.028;2023-01-28T08:07:11;4.20;99.90
21244;DHT22;10780;50.942;4.028;2023-01-28T08:09:37;4.30;99.90
21244;DHT22;10780;50.942;4.028;2023-01-28T08:12:03;4.10;99.90
21244;DHT22;10780;50.942;4.028;2023-01-28T08:14:29;4.00;99.90
21244;DHT22;10780;50.942;4.028;2023-01-28T08:16:54;4.00;99.90
21244;DHT22;10780;50.942;4.028;2023-01-28T08:19:20;4.10;99.90
21244;DHT22;10780;50.942;4.028;2023-01-28T08:21:49;4.10;99.90
21244;DHT22;10780;50.942;4.028;2023-01-28T08:24:16;4.30;99.90
21244;DHT22;10780;50.942;4.028;2023-01-28T08:26:41;4.30;99.90
21244;DHT22;10780;50.942;4.028;2023-01-28T08:29:07;4.30;99.90
21244;DHT22;10780;50.942;4.028;2023-01-28T08:31:33;4.10;99.90
21244;DHT22;10780;50.942;4.028;2023-01-28T08:33:59;4.10;99.90
21244;DHT22;10780;50.942;4.028;2023-01-28T08:36:24;4.20;99.90
21244;DHT22;10780;50.942;4.028;2023-01-28T08:38:51;4.20;99.90
21244;DHT22;10780;50.942;4.028;2023-01-28T08:41:21;4.20;99.90
21244;DHT22;10780;50.942;4.028;2023-01-28T08:43:47;4.30;99.90
21244;DHT22;10780;50.942;4.028;2023-01-28T08:46:13;4.30;99.90
21244;DHT22;10780;50.942;4.028;2023-01-28T08:48:39;4.30;99.90
21244;DHT22;10780;50.942;4.028;2023-01-28T08:51:05;4.20;99.90
21244;DHT22;10780;50.942;4.028;2023-01-28T08:53:31;4.20;99.90
21244;DHT22;10780;50.942;4.028;2023-01-28T08:55:56;4.10;99.90
21244;DHT22;10780;50.942;4.028;2023-01-28T08:58:22;4.10;99.90
21244;DHT22;10780;50.942;4.028;2023-01-28T09:00:49;4.20;99.90
21244;DHT22;10780;50.942;4.028;2023-01-28T09:03:15;4.10;99.90
21244;DHT22;10780;50.942;4.028;2023-01-28T09:05:43;4.00;99.90
21244;DHT22;10780;50.942;4.028;2023-01-28T09:08:13;4.10;99.90
21244;DHT22;10780;50.942;4.028;2023-01-28T09:10:39;4.20;99.90
21244;DHT22;10780;50.942;4.028;2023-01-28T09:13:14;4.40;99.90
21244;DHT22;10780;50.942;4.028;2023-01-28T09:15:40;4.40;99.90
21244;DHT22;10780;50.942;4.028;2023-01-28T09:18:06;4.30;99.90
21244;DHT22;10780;50.942;4.028;2023-01-28T09:20:32;4.10;99.90
21244;DHT22;10780;50.942;4.028;2023-01-28T09:22:59;4.20;99.90
21244;DHT22;10780;50.942;4.028;2023-01-28T09:25:25;4.30;99.90
21244;DHT22;10780;50.942;4.028;2023-01-28T09:27:51;4.40;99.90
21244;DHT22;10780;50.942;4.028;2023-01-28T09:30:16;4.70;99.90
21244;DHT22;10780;50.942;4.028;2023-01-28T09:32:42;4.70;99.90
21244;DHT22;10780;50.942;4.028;2023-01-28T09:35:08;4.80;99.90
21244;DHT22;10780;50.942;4.028;2023-01-28T09:37:34;4.80;99.90
21244;DHT22;10780;50.942;4.028;2023-01-28T09:40:00;4.90;99.90
21244;DHT22;10780;50.942;4.028;2023-01-28T09:45:36;5.20;99.90
21244;DHT22;10780;50.942;4.028;2023-01-28T09:48:07;5.20;99.90
21244;DHT22;10780;50.942;4.028;2023-01-28T09:50:44;5.30;99.90
21244;DHT22;10780;50.942;4.028;2023-01-28T09:53:21;5.40;99.90
21244;DHT22;10780;50.942;4.028;2023-01-28T09:58:27;5.40;99.90
21244;DHT22;10780;50.942;4.028;2023-01-28T10:07:13;5.30;99.90
21244;DHT22;10780;50.942;4.028;2023-01-28T10:10:20;5.30;99.90
21244;DHT22;10780;50.942;4.028;2023-01-28T10:18:00;5.10;99.90
21244;DHT22;10780;50.942;4.028;2023-01-28T10:20:31;5.10;99.90
21244;DHT22;10780;50.942;4.028;2023-01-28T10:23:26;5.10;99.90
21244;DHT22;10780;50.942;4.028;2023-01-28T10:25:49;5.30;99.90
21244;DHT22;10780;50.942;4.028;2023-01-28T10:28:20;5.30;99.90
21244;DHT22;10780;50.942;4.028;2023-01-28T10:30:48;5.30;99.90
21244;DHT22;10780;50.942;4.028;2023-01-28T10:33:30;5.40;99.90
21244;DHT22;10780;50.942;4.028;2023-01-28T10:35:57;5.30;99.90
21244;DHT22;10780;50.942;4.028;2023-01-28T10:38:24;5.30;99.90
21244;DHT22;10780;50.942;4.028;2023-01-28T10:40:51;5.00;99.90
21244;DHT22;10780;50.942;4.028;2023-01-28T10:43:20;5.30;99.90
21244;DHT22;10780;50.942;4.028;2023-01-28T10:46:10;5.70;99.90
21244;DHT22;10780;50.942;4.028;2023-01-28T10:51:12;5.60;99.90
21244;DHT22;10780;50.942;4.028;2023-01-28T10:53:44;5.70;99.90
21244;DHT22;10780;50.942;4.028;2023-01-28T10:56:16;5.80;99.90
21244;DHT22;10780;50.942;4.028;2023-01-28T10:59:06;5.80;99.90
21244;DHT22;10780;50.942;4.028;2023-01-28T11:02:03;6.00;99.90
21244;DHT22;10780;50.942;4.028;2023-01-28T11:04:31;6.00;99.90
21244;DHT22;10780;50.942;4.028;2023-01-28T11:07:20;6.20;99.90
21244;DHT22;10780;50.942;4.028;2023-01-28T11:09:50;6.30;99.90
21244;DHT22;10780;50.942;4.028;2023-01-28T11:12:27;6.40;99.90
21244;DHT22;10780;50.942;4.028;2023-01-28T11:14:54;6.50;99.90
21244;DHT22;10780;50.942;4.028;2023-01-28T11:17:23;6.40;99.90
21244;DHT22;10780;50.942;4.028;2023-01-28T11:19:50;6.50;99.90
21244;DHT22;10780;50.942;4.028;2023-01-28T11:22:30;6.60;99.90
21244;DHT22;10780;50.942;4.028;2023-01-28T11:24:58;6.60;99.90
21244;DHT22;10780;50.942;4.028;2023-01-28T11:27:30;6.40;99.90
21244;DHT22;10780;50.942;4.028;2023-01-28T11:29:57;6.30;99.90
21244;DHT22;10780;50.942;4.028;2023-01-28T11:32:28;6.40;99.90
21244;DHT22;10780;50.942;4.028;2023-01-28T11:34:55;6.30;99.90
21244;DHT22;10780;50.942;4.028;2023-01-28T11:37:27;6.20;99.90
21244;DHT22;10780;50.942;4.028;2023-01-28T11:40:16;5.80;99.90
21244;DHT22;10780;50.942;4.028;2023-01-28T11:42:45;6.00;99.90
21244;DHT22;10780;50.942;4.028;2023-01-28T11:50:49;6.20;99.90
21244;DHT22;10780;50.942;4.028;2023-01-28T12:08:04;6.50;99.90
21244;DHT22;10780;50.942;4.028;2023-01-28T12:13:57;6.80;99.90
21244;DHT22;10780;50.942;4.028;2023-01-28T12:22:15;6.40;99.90
21244;DHT22;10780;50.942;4.028;2023-01-28T12:33:02;5.80;99.90
21244;DHT22;10780;50.942;4.028;2023-01-28T12:36:08;5.80;99.90
21244;DHT22;10780;50.942;4.028;2023-01-28T12:41:42;5.80;99.90
21244;DHT22;10780;50.942;4.028;2023-01-28T12:44:20;5.80;99.90
21244;DHT22;10780;50.942;4.028;2023-01-28T12:46:54;5.80;99.90
21244;DHT22;10780;50.942;4.028;2023-01-28T12:54:58;5.70;99.90
21244;DHT22;10780;50.942;4.028;2023-01-28T12:57:30;5.80;99.90
21244;DHT22;10780;50.942;4.028;2023-01-28T13:02:26;6.00;99.90
21244;DHT22;10780;50.942;4.028;2023-01-28T13:05:09;6.00;99.90
21244;DHT22;10780;50.942;4.028;2023-01-28T13:07:56;6.10;99.90
21244;DHT22;10780;50.942;4.028;2023-01-28T13:10:38;6.10;99.90
21244;DHT22;10780;50.942;4.028;2023-01-28T13:13:05;5.80;99.90
21244;DHT22;10780;50.942;4.028;2023-01-28T13:15:41;5.60;99.90
21244;DHT22;10780;50.942;4.028;2023-01-28T13:26:46;6.10;99.90
21244;DHT22;10780;50.942;4.028;2023-01-28T13:31:55;6.00;99.90
21244;DHT22;10780;50.942;4.028;2023-01-28T13:37:03;5.80;99.90
21244;DHT22;10780;50.942;4.028;2023-01-28T13:39:30;5.90;99.90
21244;DHT22;10780;50.942;4.028;2023-01-28T13:44:47;6.60;99.90
21244;DHT22;10780;50.942;4.028;2023-01-28T13:47:36;6.50;99.90
21244;DHT22;10780;50.942;4.028;2023-01-28T13:50:05;6.80;99.90
21244;DHT22;10780;50.942;4.028;2023-01-28T13:55:21;7.20;99.90
21244;DHT22;10780;50.942;4.028;2023-01-28T14:01:21;7.20;99.90
21244;DHT22;10780;50.942;4.028;2023-01-28T14:14:56;6.70;99.90
21244;DHT22;10780;50.942;4.028;2023-01-28T14:19:50;7.00;99.90
21244;DHT22;10780;50.942;4.028;2023-01-28T14:22:19;7.00;99.90
21244;DHT22;10780;50.942;4.028;2023-01-28T14:24:45;6.90;99.90
21244;DHT22;10780;50.942;4.028;2023-01-28T14:32:34;6.80;99.90
21244;DHT22;10780;50.942;4.028;2023-01-28T14:35:06;6.70;99.90
21244;DHT22;10780;50.942;4.028;2023-01-28T14:37:32;6.50;99.90
21244;DHT22;10780;50.942;4.028;2023-01-28T14:40:05;6.50;99.90
21244;DHT22;10780;50.942;4.028;2023-01-28T14:42:40;6.50;99.90
21244;DHT22;10780;50.942;4.028;2023-01-28T14:54:09;6.30;99.90
21244;DHT22;10780;50.942;4.028;2023-01-28T14:56:59;6.20;99.90
21244;DHT22;10780;50.942;4.028;2023-01-28T15:01:58;6.10;99.90
21244;DHT22;10780;50.942;4.028;2023-01-28T15:04:25;6.10;99.90
21244;DHT22;10780;50.942;4.028;2023-01-28T15:06:51;6.20;99.90
21244;DHT22;10780;50.942;4.028;2023-01-28T15:09:17;6.10;99.90
21244;DHT22;10780;50.942;4.028;2023-01-28T15:11:45;6.10;99.90
21244;DHT22;10780;50.942;4.028;2023-01-28T15:14:24;6.00;99.90
21244;DHT22;10780;50.942;4.028;2023-01-28T15:16:51;6.20;99.90
21244;DHT22;10780;50.942;4.028;2023-01-28T15:19:24;6.10;99.90
21244;DHT22;10780;50.942;4.028;2023-01-28T15:21:57;6.10;99.90
21244;DHT22;10780;50.942;4.028;2023-01-28T15:24:24;6.20;99.90
21244;DHT22;10780;50.942;4.028;2023-01-28T15:26:50;6.40;99.90
21244;DHT22;10780;50.942;4.028;2023-01-28T15:29:24;6.20;99.90
21244;DHT22;10780;50.942;4.028;2023-01-28T15:31:51;6.00;99.90
21244;DHT22;10780;50.942;4.028;2023-01-28T15:34:18;5.90;99.90
21244;DHT22;10780;50.942;4.028;2023-01-28T15:36:44;5.80;99.90
21244;DHT22;10780;50.942;4.028;2023-01-28T15:39:20;5.80;99.90
21244;DHT22;10780;50.942;4.028;2023-01-28T15:41:51;5.80;99.90
21244;DHT22;10780;50.942;4.028;2023-01-28T15:44:41;5.70;99.90
21244;DHT22;10780;50.942;4.028;2023-01-28T15:47:24;5.80;99.90
21244;DHT22;10780;50.942;4.028;2023-01-28T15:49:55;5.90;99.90
21244;DHT22;10780;50.942;4.028;2023-01-28T15:52:31;5.80;99.90
21244;DHT22;10780;50.942;4.028;2023-01-28T15:54:57;5.80;99.90
21244;DHT22;10780;50.942;4.028;2023-01-28T15:57:29;5.70;99.90
21244;DHT22;10780;50.942;4.028;2023-01-28T16:02:37;5.50;99.90
21244;DHT22;10780;50.942;4.028;2023-01-28T16:05:24;5.40;99.90
21244;DHT22;10780;50.942;4.028;2023-01-28T16:07:50;5.40;99.90
21244;DHT22;10780;50.942;4.028;2023-01-28T16:10:22;5.40;99.90
21244;DHT22;10780;50.942;4.028;2023-01-28T16:12:52;5.40;99.90
21244;DHT22;10780;50.942;4.028;2023-01-28T16:15:19;5.40;99.90
21244;DHT22;10780;50.942;4.028;2023-01-28T16:17:49;5.30;99.90
21244;DHT22;10780;50.942;4.028;2023-01-28T16:20:22;5.20;99.90
21244;DHT22;10780;50.942;4.028;2023-01-28T16:22:48;5.20;99.90
21244;DHT22;10780;50.942;4.028;2023-01-28T16:25:34;5.40;99.90
21244;DHT22;10780;50.942;4.028;2023-01-28T16:28:02;5.30;99.90
21244;DHT22;10780;50.942;4.028;2023-01-28T16:30:29;5.40;99.90
21244;DHT22;10780;50.942;4.028;2023-01-28T16:32:55;5.20;99.90
21244;DHT22;10780;50.942;4.028;2023-01-28T16:35:28;5.30;99.90
21244;DHT22;10780;50.942;4.028;2023-01-28T16:37:54;5.20;99.90
21244;DHT22;10780;50.942;4.028;2023-01-28T16:40:22;5.20;99.90
21244;DHT22;10780;50.942;4.028;2023-01-28T16:42:48;5.20;99.90
21244;DHT22;10780;50.942;4.028;2023-01-28T16:45:19;5.40;99.90
21244;DHT22;10780;50.942;4.028;2023-01-28T16:47:45;5.50;99.90
21244;DHT22;10780;50.942;4.028;2023-01-28T16:50:12;5.50;99.90
21244;DHT22;10780;50.942;4.028;2023-01-28T16:52:44;5.40;99.90
21244;DHT22;10780;50.942;4.028;2023-01-28T16:55:15;5.30;99.90
21244;DHT22;10780;50.942;4.028;2023-01-28T16:57:42;5.30;99.90
21244;DHT22;10780;50.942;4.028;2023-01-28T17:00:15;5.40;99.90
21244;DHT22;10780;50.942;4.028;2023-01-28T17:02:43;5.40;99.90
21244;DHT22;10780;50.942;4.028;2023-01-28T17:05:09;5.50;99.90
21244;DHT22;10780;50.942;4.028;2023-01-28T17:07:40;5.50;99.90
21244;DHT22;10780;50.942;4.028;2023-01-28T17:10:06;5.40;99.90
21244;DHT22;10780;50.942;4.028;2023-01-28T17:12:33;5.30;99.90
21244;DHT22;10780;50.942;4.028;2023-01-28T17:14:58;5.10;99.90
21244;DHT22;10780;50.942;4.028;2023-01-28T17:17:24;5.10;99.90
21244;DHT22;10780;50.942;4.028;2023-01-28T17:19:50;5.10;99.90
21244;DHT22;10780;50.942;4.028;2023-01-28T17:22:15;5.10;99.90
21244;DHT22;10780;50.942;4.028;2023-01-28T17:24:41;5.20;99.90
21244;DHT22;10780;50.942;4.028;2023-01-28T17:27:06;5.20;99.90
21244;DHT22;10780;50.942;4.028;2023-01-28T17:29:32;5.20;99.90
21244;DHT22;10780;50.942;4.028;2023-01-28T17:31:58;5.20;99.90
21244;DHT22;10780;50.942;4.028;2023-01-28T17:34:24;5.00;99.90
21244;DHT22;10780;50.942;4.028;2023-01-28T17:36:50;4.90;99.90
21244;DHT22;10780;50.942;4.028;2023-01-28T17:39:15;4.90;99.90
21244;DHT22;10780;50.942;4.028;2023-01-28T17:41:41;5.00;99.90
21244;DHT22;10780;50.942;4.028;2023-01-28T17:44:10;4.80;99.90
21244;DHT22;10780;50.942;4.028;2023-01-28T17:46:36;4.80;99.90
21244;DHT22;10780;50.942;4.028;2023-01-28T17:49:02;4.70;99.90
21244;DHT22;10780;50.942;4.028;2023-01-28T17:51:28;4.60;99.90
21244;DHT22;10780;50.942;4.028;2023-01-28T17:53:53;4.50;99.90
21244;DHT22;10780;50.942;4.028;2023-01-28T17:56:22;4.40;99.90
21244;DHT22;10780;50.942;4.028;2023-01-28T17:58:53;4.20;99.90
21244;DHT22;10780;50.942;4.028;2023-01-28T18:01:20;4.30;99.90
21244;DHT22;10780;50.942;4.028;2023-01-28T18:03:46;4.40;99.90
21244;DHT22;10780;50.942;4.028;2023-01-28T18:06:11;4.40;99.90
21244;DHT22;10780;50.942;4.028;2023-01-28T18:08:37;4.30;99.90
21244;DHT22;10780;50.942;4.028;2023-01-28T18:11:06;4.40;99.90
21244;DHT22;10780;50.942;4.028;2023-01-28T18:13:37;4.40;99.90
21244;DHT22;10780;50.942;4.028;2023-01-28T18:16:04;4.40;99.90
21244;DHT22;10780;50.942;4.028;2023-01-28T18:18:31;4.20;99.90
21244;DHT22;10780;50.942;4.028;2023-01-28T18:21:02;4.10;99.90
21244;DHT22;10780;50.942;4.028;2023-01-28T18:23:29;4.10;99.90
21244;DHT22;10780;50.942;4.028;2023-01-28T18:25:56;4.00;99.90